createdAt,value
2019-01-20T00:01:35.833Z,20.63
2019-01-20T00:04:06.379Z,18.63
2019-01-20T00:06:37.035Z,20.07
2019-01-20T00:09:08.910Z,20.37
2019-01-20T00:11:39.579Z,19.00
2019-01-20T00:14:10.225Z,19.87
2019-01-20T00:16:40.970Z,19.97
2019-01-20T00:19:11.598Z,18.80
2019-01-20T00:21:41.962Z,19.13
2019-01-20T00:24:12.539Z,18.13
2019-01-20T00:26:43.332Z,17.77
2019-01-20T00:29:13.586Z,19.33
2019-01-20T00:31:44.264Z,21.20
2019-01-20T00:34:15.077Z,18.73
2019-01-20T00:36:45.739Z,19.10
2019-01-20T00:39:16.340Z,18.47
2019-01-20T00:41:46.981Z,19.53
2019-01-20T00:44:17.644Z,18.67
2019-01-20T00:46:48.335Z,19.10
2019-01-20T00:49:18.972Z,18.87
2019-01-20T00:51:49.601Z,18.57
2019-01-20T00:54:20.339Z,18.97
2019-01-20T00:56:50.965Z,19.53
2019-01-20T00:59:21.709Z,19.33
2019-01-20T01:01:52.322Z,18.97
2019-01-20T01:04:23.063Z,18.87
2019-01-20T01:06:53.697Z,19.20
2019-01-20T01:09:24.506Z,19.70
2019-01-20T01:11:55.266Z,19.60
2019-01-20T01:14:25.481Z,19.20
2019-01-20T01:16:56.117Z,19.77
2019-01-20T01:19:26.444Z,19.77
2019-01-20T01:21:57.110Z,19.73
2019-01-20T01:24:27.712Z,18.87
2019-01-20T01:26:58.431Z,20.00
2019-01-20T01:29:29.098Z,20.60
2019-01-20T01:31:59.728Z,19.30
2019-01-20T01:34:30.486Z,20.03
2019-01-20T01:37:01.169Z,20.03
2019-01-20T01:39:31.908Z,19.70
2019-01-20T01:42:02.543Z,19.77
2019-01-20T01:44:36.342Z,20.20
2019-01-20T01:47:06.996Z,20.57
2019-01-20T01:49:37.626Z,20.23
2019-01-20T01:52:08.226Z,20.47
2019-01-20T01:54:38.526Z,20.83
2019-01-20T01:57:09.191Z,20.40
2019-01-20T01:59:39.822Z,20.50
2019-01-20T02:02:11.068Z,21.63
2019-01-20T02:04:41.256Z,21.13
2019-01-20T02:07:11.924Z,20.77
2019-01-20T02:09:42.576Z,20.87
2019-01-20T02:12:15.191Z,20.67
2019-01-20T02:14:45.748Z,20.00
2019-01-20T02:17:16.398Z,20.93
2019-01-20T02:19:46.944Z,20.67
2019-01-20T02:22:17.648Z,21.50
2019-01-20T02:24:48.390Z,20.87
2019-01-20T02:27:19.089Z,21.33
2019-01-20T02:29:49.713Z,20.70
2019-01-20T02:32:20.292Z,21.73
2019-01-20T02:34:50.945Z,20.73
2019-01-20T02:37:21.707Z,21.57
2019-01-20T02:39:52.441Z,22.30
2019-01-20T02:42:23.159Z,22.33
2019-01-20T02:44:53.773Z,22.70
2019-01-20T02:47:24.507Z,21.43
2019-01-20T02:49:55.431Z,21.77
2019-01-20T02:52:25.828Z,22.30
2019-01-20T02:54:56.369Z,20.70
2019-01-20T02:57:26.936Z,22.03
2019-01-20T02:59:57.660Z,21.57
2019-01-20T03:02:29.112Z,22.27
2019-01-20T03:04:59.722Z,22.20
2019-01-20T03:07:30.356Z,21.70
2019-01-20T03:10:03.260Z,21.50
2019-01-20T03:12:33.868Z,22.30
2019-01-20T03:15:11.950Z,21.87
2019-01-20T03:17:42.331Z,21.77
2019-01-20T03:20:15.291Z,22.77
2019-01-20T03:22:47.523Z,22.47
2019-01-20T03:25:18.137Z,21.90
2019-01-20T03:27:48.845Z,21.90
2019-01-20T03:30:22.917Z,21.83
2019-01-20T03:32:53.595Z,22.40
2019-01-20T03:35:24.550Z,21.80
2019-01-20T03:37:55.187Z,22.97
2019-01-20T03:40:28.092Z,21.60
2019-01-20T03:42:58.801Z,20.97
2019-01-20T03:45:29.065Z,21.57
2019-01-20T03:48:00.485Z,20.80
2019-01-20T03:50:31.753Z,22.20
2019-01-20T03:53:02.936Z,22.03
2019-01-20T03:55:33.552Z,22.27
2019-01-20T03:58:04.230Z,21.37
2019-01-20T04:00:34.929Z,22.23
2019-01-20T04:03:05.922Z,22.40
2019-01-20T04:05:36.506Z,23.37
2019-01-20T04:08:10.595Z,22.00
2019-01-20T04:10:41.251Z,21.60
2019-01-20T04:13:12.303Z,21.93
2019-01-20T04:15:43.031Z,22.37
2019-01-20T04:18:13.745Z,22.67
2019-01-20T04:20:44.402Z,22.97
2019-01-20T04:23:15.141Z,21.47
2019-01-20T04:25:47.374Z,22.77
2019-01-20T04:28:18.047Z,23.00
2019-01-20T04:30:48.563Z,23.60
2019-01-20T04:33:20.742Z,23.17
2019-01-20T04:35:51.353Z,24.03
2019-01-20T04:38:22.029Z,27.90
2019-01-20T04:40:52.724Z,23.67
2019-01-20T04:43:23.478Z,24.70
2019-01-20T04:45:56.436Z,24.77
2019-01-20T04:48:27.076Z,24.53
2019-01-20T04:50:57.348Z,24.40
2019-01-20T04:53:28.433Z,24.83
2019-01-20T04:55:59.062Z,25.67
2019-01-20T04:58:30.004Z,24.97
2019-01-20T05:01:00.645Z,25.57
2019-01-20T05:03:31.370Z,24.77
2019-01-20T05:06:01.912Z,26.17
2019-01-20T05:08:32.524Z,25.10
2019-01-20T05:11:03.071Z,26.67
2019-01-20T05:13:33.672Z,28.13
2019-01-20T05:16:04.404Z,26.93
2019-01-20T05:18:35.033Z,26.03
2019-01-20T05:21:05.724Z,26.07
2019-01-20T05:23:36.318Z,24.43
2019-01-20T05:26:06.539Z,25.77
2019-01-20T05:28:37.169Z,25.57
2019-01-20T05:31:08.006Z,28.20
2019-01-20T05:33:38.646Z,27.23
2019-01-20T05:36:09.299Z,27.97
2019-01-20T05:38:40.044Z,27.73
2019-01-20T05:41:10.740Z,26.50
2019-01-20T05:43:41.375Z,26.40
2019-01-20T05:46:12.017Z,28.40
2019-01-20T05:48:42.633Z,25.70
2019-01-20T05:51:13.802Z,26.33
2019-01-20T05:53:44.433Z,27.60
2019-01-20T05:56:15.053Z,26.97
2019-01-20T05:58:45.691Z,27.00
2019-01-20T06:01:16.319Z,25.93
2019-01-20T06:03:47.054Z,25.77
2019-01-20T06:06:17.585Z,27.23
2019-01-20T06:08:48.322Z,27.23
2019-01-20T06:11:18.950Z,28.20
2019-01-20T06:13:49.578Z,28.53
2019-01-20T06:16:20.128Z,27.57
2019-01-20T06:18:50.734Z,28.13
2019-01-20T06:21:21.263Z,27.97
2019-01-20T06:23:51.895Z,28.50
2019-01-20T06:26:22.535Z,28.83
2019-01-20T06:28:53.089Z,28.83
2019-01-20T06:31:23.796Z,27.83
2019-01-20T06:33:54.426Z,29.80
2019-01-20T06:36:25.070Z,30.53
2019-01-20T06:38:55.998Z,29.70
2019-01-20T06:41:26.750Z,28.60
2019-01-20T06:43:57.484Z,30.50
2019-01-20T06:46:28.197Z,29.13
2019-01-20T06:48:58.883Z,29.27
2019-01-20T06:51:29.572Z,28.53
2019-01-20T06:54:00.193Z,29.47
2019-01-20T06:56:30.879Z,29.87
2019-01-20T06:59:01.576Z,29.67
2019-01-20T07:01:31.913Z,28.60
2019-01-20T07:04:02.578Z,29.30
2019-01-20T07:06:33.144Z,29.90
2019-01-20T07:09:05.647Z,29.03
2019-01-20T07:11:36.378Z,28.83
2019-01-20T07:14:07.064Z,28.70
2019-01-20T07:16:37.769Z,29.83
2019-01-20T07:19:08.570Z,29.20
2019-01-20T07:21:39.206Z,30.33
2019-01-20T07:24:09.833Z,30.07
2019-01-20T07:26:40.468Z,30.97
2019-01-20T07:29:11.198Z,30.07
2019-01-20T07:31:42.452Z,29.47
2019-01-20T07:34:12.701Z,29.33
2019-01-20T07:36:43.218Z,30.20
2019-01-20T07:39:13.863Z,30.20
2019-01-20T07:41:44.877Z,29.60
2019-01-20T07:44:15.513Z,30.33
2019-01-20T07:46:46.250Z,29.97
2019-01-20T07:49:16.882Z,29.20
2019-01-20T07:51:47.493Z,29.77
2019-01-20T07:54:18.261Z,29.37
2019-01-20T07:56:49.174Z,29.10
2019-01-20T07:59:21.645Z,29.10
2019-01-20T08:01:53.837Z,30.73
2019-01-20T08:04:28.530Z,29.07
2019-01-20T08:06:58.905Z,29.70
2019-01-20T08:09:29.601Z,29.73
2019-01-20T08:12:00.547Z,30.90
2019-01-20T08:14:31.175Z,29.37
2019-01-20T08:17:03.571Z,29.93
2019-01-20T08:19:34.308Z,30.00
2019-01-20T08:22:05.014Z,29.70
2019-01-20T08:24:38.747Z,30.07
2019-01-20T08:27:09.341Z,30.70
2019-01-20T08:29:39.997Z,32.07
2019-01-20T08:32:10.630Z,31.00
2019-01-20T08:34:41.345Z,36.57
2019-01-20T08:37:11.973Z,37.23
2019-01-20T08:39:42.633Z,34.77
2019-01-20T08:42:12.936Z,39.03
2019-01-20T08:44:43.605Z,37.17
2019-01-20T08:47:16.467Z,34.33
2019-01-20T08:49:47.197Z,37.90
2019-01-20T08:52:20.651Z,37.77
2019-01-20T08:54:51.227Z,35.47
2019-01-20T08:57:21.903Z,32.77
2019-01-20T08:59:52.252Z,33.57
2019-01-20T09:02:24.860Z,34.30
2019-01-20T09:04:55.517Z,32.73
2019-01-20T09:07:26.234Z,32.10
2019-01-20T09:09:56.947Z,33.70
2019-01-20T09:12:27.944Z,31.47
2019-01-20T09:14:58.645Z,33.20
2019-01-20T09:17:30.645Z,32.33
2019-01-20T09:20:01.741Z,32.80
2019-01-20T09:22:32.371Z,34.83
2019-01-20T09:25:03.146Z,32.40
2019-01-20T09:27:33.839Z,33.97
2019-01-20T09:30:07.956Z,31.90
2019-01-20T09:32:38.290Z,32.77
2019-01-20T09:35:09.316Z,33.70
2019-01-20T09:37:39.706Z,33.07
2019-01-20T09:40:13.038Z,34.73
2019-01-20T09:42:44.226Z,33.90
2019-01-20T09:45:28.099Z,33.13
2019-01-20T09:48:02.020Z,33.03
2019-01-20T09:50:32.782Z,33.37
2019-01-20T09:53:03.414Z,32.97
2019-01-20T09:55:34.035Z,34.47
2019-01-20T09:58:05.079Z,34.07
2019-01-20T10:00:38.167Z,35.17
2019-01-20T10:03:16.011Z,34.70
2019-01-20T10:05:41.282Z,32.87
2019-01-20T10:08:12.034Z,36.13
2019-01-20T10:10:42.730Z,34.77
2019-01-20T10:13:16.337Z,35.20
2019-01-20T10:15:47.208Z,34.73
2019-01-20T10:18:17.910Z,34.63
2019-01-20T10:20:49.200Z,35.97
2019-01-20T10:23:22.802Z,34.20
2019-01-20T10:25:53.463Z,35.20
2019-01-20T10:28:24.356Z,33.80
2019-01-20T10:30:55.059Z,32.93
2019-01-20T10:33:25.685Z,34.17
2019-01-20T10:35:58.510Z,34.10
2019-01-20T10:38:29.198Z,34.30
2019-01-20T10:40:59.936Z,33.10
2019-01-20T10:43:30.589Z,31.63
2019-01-20T10:46:04.275Z,33.83
2019-01-20T10:48:35.003Z,31.90
2019-01-20T10:51:05.626Z,33.83
2019-01-20T10:53:36.301Z,32.33
2019-01-20T10:56:07.825Z,33.00
2019-01-20T10:58:38.635Z,33.53
2019-01-20T11:01:09.389Z,32.97
2019-01-20T11:03:42.064Z,32.67
2019-01-20T11:06:13.893Z,33.57
2019-01-20T11:08:44.570Z,31.23
2019-01-20T11:11:15.197Z,29.93
2019-01-20T11:13:45.931Z,31.43
2019-01-20T11:16:18.302Z,29.50
2019-01-20T11:18:48.932Z,29.93
2019-01-20T11:21:20.272Z,28.40
2019-01-20T11:23:53.506Z,27.47
2019-01-20T11:26:23.299Z,30.10
2019-01-20T11:28:53.713Z,30.10
2019-01-20T11:31:24.450Z,30.20
2019-01-20T11:33:55.087Z,28.83
2019-01-20T11:36:29.056Z,28.90
2019-01-20T11:38:59.779Z,28.07
2019-01-20T11:41:30.574Z,27.97
2019-01-20T11:44:04.061Z,30.03
2019-01-20T11:46:34.680Z,29.53
2019-01-20T11:49:05.425Z,28.70
2019-01-20T11:51:36.143Z,26.90
2019-01-20T11:54:08.179Z,26.90
2019-01-20T11:56:38.846Z,27.27
2019-01-20T11:59:09.645Z,29.63
2019-01-20T12:01:40.774Z,29.47
2019-01-20T12:04:13.485Z,29.10
2019-01-20T12:06:44.031Z,28.83
2019-01-20T12:09:14.714Z,27.93
2019-01-20T12:11:45.557Z,27.30
2019-01-20T12:14:16.583Z,26.53
2019-01-20T12:16:46.912Z,27.00
2019-01-20T12:19:17.501Z,26.67
2019-01-20T12:21:49.061Z,26.10
2019-01-20T12:24:19.996Z,26.00
2019-01-20T12:26:50.788Z,27.40
2019-01-20T12:29:21.459Z,26.60
2019-01-20T12:31:53.218Z,27.03
2019-01-20T12:34:24.709Z,26.93
2019-01-20T12:36:56.849Z,25.43
2019-01-20T12:39:27.704Z,25.33
2019-01-20T12:41:58.457Z,26.13
2019-01-20T12:44:31.547Z,26.37
2019-01-20T12:47:01.468Z,24.90
2019-01-20T12:49:32.280Z,24.07
2019-01-20T12:52:02.979Z,24.00
2019-01-20T12:54:34.632Z,24.20
2019-01-20T12:57:05.589Z,25.93
2019-01-20T12:59:36.132Z,25.90
2019-01-20T13:02:06.610Z,25.60
2019-01-20T13:04:37.508Z,25.70
2019-01-20T13:07:08.301Z,24.87
2019-01-20T13:09:39.145Z,26.57
2019-01-20T13:12:09.786Z,25.23
2019-01-20T13:14:40.418Z,26.53
2019-01-20T13:17:11.048Z,26.53
2019-01-20T13:19:44.531Z,26.43
2019-01-20T13:22:14.506Z,26.37
2019-01-20T13:24:47.721Z,26.07
2019-01-20T13:27:18.388Z,26.60
2019-01-20T13:29:49.041Z,26.90
2019-01-20T13:32:19.814Z,27.67
2019-01-20T13:34:51.610Z,26.87
2019-01-20T13:37:22.240Z,27.17
2019-01-20T13:39:52.535Z,27.80
2019-01-20T13:42:23.410Z,27.93
2019-01-20T13:44:55.545Z,28.03
2019-01-20T13:47:26.867Z,30.00
2019-01-20T13:49:57.605Z,31.90
2019-01-20T13:52:28.075Z,34.67
2019-01-20T13:54:58.482Z,31.73
2019-01-20T13:57:29.316Z,30.83
2019-01-20T14:00:00.092Z,31.97
2019-01-20T14:02:30.947Z,32.63
2019-01-20T14:05:02.566Z,30.37
2019-01-20T14:07:33.202Z,30.77
2019-01-20T14:10:07.343Z,29.43
2019-01-20T14:12:38.603Z,30.27
2019-01-20T14:15:11.856Z,29.27
2019-01-20T14:17:42.486Z,29.47
2019-01-20T14:20:16.332Z,29.63
2019-01-20T14:22:47.046Z,28.77
2019-01-20T14:25:20.233Z,29.47
2019-01-20T14:27:50.981Z,29.03
2019-01-20T14:30:24.747Z,28.50
2019-01-20T14:32:55.443Z,28.57
2019-01-20T14:35:26.224Z,28.13
2019-01-20T14:37:56.606Z,29.13
2019-01-20T14:40:27.318Z,30.07
2019-01-20T14:42:58.031Z,29.67
2019-01-20T14:45:32.358Z,29.67
2019-01-20T14:48:05.251Z,29.13
2019-01-20T14:50:35.973Z,27.27
2019-01-20T14:53:08.914Z,26.87
2019-01-20T14:55:39.616Z,27.83
2019-01-20T14:58:10.361Z,25.83
2019-01-20T15:00:41.061Z,26.13
2019-01-20T15:03:11.812Z,26.83
2019-01-20T15:05:42.190Z,25.27
2019-01-20T15:08:13.388Z,25.73
2019-01-20T15:10:44.099Z,25.67
2019-01-20T15:13:14.913Z,24.23
2019-01-20T15:15:45.568Z,23.10
2019-01-20T15:18:16.563Z,25.07
2019-01-20T15:20:47.257Z,23.33
2019-01-20T15:23:17.974Z,24.43
2019-01-20T15:25:48.712Z,23.97
2019-01-20T15:28:19.049Z,24.83
2019-01-20T15:30:49.567Z,25.90
2019-01-20T15:33:19.921Z,23.53
2019-01-20T15:35:50.515Z,23.33
2019-01-20T15:38:21.593Z,23.87
2019-01-20T15:40:52.194Z,22.00
2019-01-20T15:43:22.848Z,22.77
2019-01-20T15:45:53.565Z,22.57
2019-01-20T15:48:24.292Z,22.23
2019-01-20T15:50:54.939Z,21.80
2019-01-20T15:53:25.679Z,22.03
2019-01-20T15:55:56.402Z,20.10
2019-01-20T15:58:27.157Z,21.30
2019-01-20T16:00:57.871Z,21.07
2019-01-20T16:03:32.887Z,20.13
2019-01-20T16:06:02.482Z,22.03
2019-01-20T16:08:36.360Z,22.80
2019-01-20T16:11:07.069Z,20.90
2019-01-20T16:13:37.909Z,21.43
2019-01-20T16:16:10.287Z,21.33
2019-01-20T16:18:41.066Z,22.40
2019-01-20T16:21:12.320Z,22.40
2019-01-20T16:23:43.121Z,23.73
2019-01-20T16:26:14.887Z,23.10
2019-01-20T16:28:45.763Z,23.27
2019-01-20T16:31:16.421Z,20.00
2019-01-20T16:33:47.136Z,21.07
2019-01-20T16:36:17.663Z,20.53
2019-01-20T16:38:48.447Z,19.90
2019-01-20T16:41:19.059Z,21.53
2019-01-20T16:43:49.779Z,21.87
2019-01-20T16:46:22.100Z,21.43
2019-01-20T16:48:53.003Z,22.27
2019-01-20T16:51:23.637Z,22.63
2019-01-20T16:53:54.351Z,22.23
2019-01-20T16:56:25.088Z,22.57
2019-01-20T16:58:55.808Z,20.83
2019-01-20T17:01:26.583Z,21.27
2019-01-20T17:03:56.955Z,23.17
2019-01-20T17:06:27.951Z,21.50
2019-01-20T17:09:01.551Z,22.17
2019-01-20T17:11:32.311Z,22.50
2019-01-20T17:14:03.054Z,22.67
2019-01-20T17:16:33.728Z,23.87
2019-01-20T17:19:05.012Z,24.77
2019-01-20T17:21:35.852Z,23.33
2019-01-20T17:24:06.533Z,24.53
2019-01-20T17:26:37.411Z,23.50
2019-01-20T17:29:08.150Z,27.47
2019-01-20T17:31:38.879Z,23.77
2019-01-20T17:34:09.693Z,26.33
2019-01-20T17:36:40.966Z,26.67
2019-01-20T17:39:15.800Z,24.73
2019-01-20T17:41:46.520Z,25.00
2019-01-20T17:44:17.342Z,26.47
2019-01-20T17:46:48.178Z,24.73
2019-01-20T17:49:19.508Z,25.00
2019-01-20T17:51:50.392Z,26.17
2019-01-20T17:54:21.081Z,25.77
2019-01-20T17:56:51.923Z,26.30
2019-01-20T17:59:23.074Z,26.23
2019-01-20T18:01:53.877Z,25.83
2019-01-20T18:04:24.722Z,26.17
2019-01-20T18:06:55.355Z,25.00
2019-01-20T18:09:26.219Z,25.43
2019-01-20T18:11:57.088Z,24.33
2019-01-20T18:14:27.765Z,26.57
2019-01-20T18:16:59.642Z,24.03
2019-01-20T18:19:30.403Z,23.67
2019-01-20T18:22:01.218Z,23.23
2019-01-20T18:24:32.301Z,24.07
2019-01-20T18:27:03.774Z,23.63
2019-01-20T18:29:34.696Z,24.10
2019-01-20T18:32:06.225Z,24.27
2019-01-20T18:34:37.070Z,25.27
2019-01-20T18:37:08.058Z,26.87
2019-01-20T18:39:38.734Z,24.37
2019-01-20T18:42:09.542Z,24.43
2019-01-20T18:44:40.281Z,24.90
2019-01-20T18:47:11.222Z,25.17
2019-01-20T18:49:42.110Z,30.93
2019-01-20T18:52:12.970Z,24.63
2019-01-20T18:54:43.727Z,26.77
2019-01-20T18:57:15.614Z,26.17
2019-01-20T18:59:48.061Z,25.50
2019-01-20T19:02:18.459Z,25.83
2019-01-20T19:04:49.238Z,26.93
2019-01-20T19:07:20.630Z,25.67
2019-01-20T19:09:51.332Z,24.97
2019-01-20T19:12:22.120Z,26.83
2019-01-20T19:14:58.781Z,28.23
2019-01-20T19:17:29.664Z,24.93
2019-01-20T19:20:00.395Z,24.87
2019-01-20T19:22:31.266Z,24.17
2019-01-20T19:25:01.952Z,26.20
2019-01-20T19:27:32.733Z,25.97
2019-01-20T19:30:05.285Z,25.87
2019-01-20T19:32:36.011Z,25.97
2019-01-20T19:35:10.345Z,25.47
2019-01-20T19:37:41.165Z,24.50
2019-01-20T19:40:14.292Z,25.33
2019-01-20T19:42:45.097Z,24.33
2019-01-20T19:45:18.322Z,25.63
2019-01-20T19:47:49.413Z,25.97
2019-01-20T19:50:20.314Z,24.97
2019-01-20T19:52:52.910Z,28.27
2019-01-20T19:55:26.461Z,24.90
2019-01-20T19:57:57.406Z,26.33
2019-01-20T20:00:30.400Z,25.00
2019-01-20T20:03:07.538Z,25.50
2019-01-20T20:05:38.625Z,28.77
2019-01-20T20:08:09.433Z,25.43
2019-01-20T20:10:40.433Z,22.60
2019-01-20T20:13:11.264Z,22.90
2019-01-20T20:15:41.996Z,23.40
2019-01-20T20:18:12.933Z,24.43
2019-01-20T20:20:43.582Z,21.13
2019-01-20T20:23:15.975Z,21.87
2019-01-20T20:25:47.859Z,23.20
2019-01-20T20:28:18.833Z,22.73
2019-01-20T20:30:49.633Z,22.60
2019-01-20T20:33:20.558Z,22.23
2019-01-20T20:35:51.408Z,22.60
2019-01-20T20:38:22.021Z,22.70
2019-01-20T20:40:53.316Z,21.13
2019-01-20T20:43:24.322Z,21.43
2019-01-20T20:45:54.959Z,21.90
2019-01-20T20:48:25.874Z,21.20
2019-01-20T20:50:56.609Z,22.00
2019-01-20T20:53:27.476Z,21.63
2019-01-20T20:55:57.811Z,20.83
2019-01-20T20:58:28.525Z,21.20
2019-01-20T21:00:59.500Z,19.63
2019-01-20T21:03:30.220Z,19.13
2019-01-20T21:06:01.106Z,19.60
2019-01-20T21:08:31.826Z,20.73
2019-01-20T21:11:02.631Z,19.70
2019-01-20T21:13:33.462Z,20.50
2019-01-20T21:16:06.096Z,20.67
2019-01-20T21:18:36.881Z,21.27
2019-01-20T21:21:08.938Z,21.47
2019-01-20T21:23:39.660Z,21.07
2019-01-20T21:26:10.422Z,21.07
2019-01-20T21:28:41.241Z,23.30
2019-01-20T21:31:11.945Z,20.83
2019-01-20T21:33:44.420Z,21.37
2019-01-20T21:36:15.261Z,20.20
2019-01-20T21:38:46.034Z,20.83
2019-01-20T21:41:16.717Z,20.63
2019-01-20T21:43:48.067Z,21.00
2019-01-20T21:46:18.795Z,20.53
2019-01-20T21:48:49.967Z,20.83
2019-01-20T21:51:20.791Z,19.53
2019-01-20T21:53:52.943Z,21.60
2019-01-20T21:56:23.671Z,20.23
2019-01-20T21:58:54.069Z,20.03
2019-01-20T22:01:24.775Z,20.50
2019-01-20T22:03:55.569Z,20.10
2019-01-20T22:06:29.090Z,21.20
2019-01-20T22:08:59.688Z,20.00
2019-01-20T22:11:30.446Z,20.03
2019-01-20T22:14:01.183Z,18.87
2019-01-20T22:16:31.907Z,18.70
2019-01-20T22:19:02.521Z,19.77
2019-01-20T22:21:33.162Z,19.00
2019-01-20T22:24:04.004Z,20.10
2019-01-20T22:26:34.671Z,19.93
2019-01-20T22:29:05.468Z,21.17
2019-01-20T22:31:36.085Z,19.00
2019-01-20T22:34:07.038Z,19.73
2019-01-20T22:36:37.675Z,19.27
2019-01-20T22:39:08.077Z,18.57
2019-01-20T22:41:38.751Z,18.37
2019-01-20T22:44:09.819Z,20.47
2019-01-20T22:46:40.498Z,19.37
2019-01-20T22:49:11.224Z,20.37
2019-01-20T22:51:41.875Z,19.80
2019-01-20T22:54:12.612Z,21.03
2019-01-20T22:56:43.400Z,18.50
2019-01-20T22:59:14.190Z,19.43
2019-01-20T23:01:44.485Z,19.37
2019-01-20T23:04:15.153Z,18.60
2019-01-20T23:06:45.882Z,18.93
2019-01-20T23:09:19.258Z,19.37
2019-01-20T23:11:49.904Z,18.40
2019-01-20T23:14:20.568Z,18.43
2019-01-20T23:16:50.907Z,18.70
2019-01-20T23:19:21.559Z,17.50
2019-01-20T23:21:51.836Z,15.73
2019-01-20T23:24:22.531Z,16.97
2019-01-20T23:26:52.811Z,17.23
2019-01-20T23:29:23.532Z,14.90
2019-01-20T23:31:58.918Z,17.00
2019-01-20T23:34:30.839Z,15.47
2019-01-20T23:37:02.080Z,15.77
2019-01-20T23:39:32.806Z,15.90
2019-01-20T23:42:03.637Z,15.43
2019-01-20T23:44:34.356Z,16.20
2019-01-20T23:47:04.987Z,17.40
2019-01-20T23:49:35.610Z,15.87
2019-01-20T23:52:06.391Z,16.30
2019-01-20T23:54:36.881Z,16.53
2019-01-20T23:57:07.191Z,16.03
2019-01-20T23:59:37.929Z,15.97
